createdAt,value
2023-04-25T00:00:15.022Z,5.07
2023-04-25T00:02:42.598Z,5.22
2023-04-25T00:05:10.228Z,5.43
2023-04-25T00:07:36.983Z,5.40
2023-04-25T00:10:04.269Z,6.13
2023-04-25T00:12:30.823Z,6.43
2023-04-25T00:15:00.993Z,6.25
2023-04-25T00:17:27.939Z,6.57
2023-04-25T00:19:54.651Z,6.43
2023-04-25T00:22:21.893Z,6.30
2023-04-25T00:24:48.502Z,6.38
2023-04-25T00:27:15.038Z,6.25
2023-04-25T00:29:41.614Z,5.80
2023-04-25T00:32:08.190Z,5.90
2023-04-25T00:34:34.760Z,5.50
2023-04-25T00:37:03.142Z,5.72
2023-04-25T00:39:29.793Z,4.93
2023-04-25T00:41:56.620Z,5.45
2023-04-25T00:44:23.478Z,5.30
2023-04-25T00:46:53.100Z,5.10
2023-04-25T00:49:19.674Z,5.03
2023-04-25T00:51:46.355Z,5.18
2023-04-25T00:54:16.428Z,6.00
2023-04-25T00:56:43.285Z,5.38
2023-04-25T00:59:10.875Z,5.20
2023-04-25T01:01:38.799Z,5.13
2023-04-25T01:04:05.830Z,4.93
2023-04-25T01:06:32.981Z,5.00
2023-04-25T01:09:00.501Z,4.85
2023-04-25T01:11:27.089Z,5.00
2023-04-25T01:13:53.735Z,5.50
2023-04-25T01:16:20.281Z,5.22
2023-04-25T01:18:47.742Z,4.63
2023-04-25T01:21:14.420Z,4.65
2023-04-25T01:23:42.315Z,5.35
2023-04-25T01:26:11.242Z,5.30
2023-04-25T01:28:38.431Z,5.03
2023-04-25T01:31:06.801Z,4.78
2023-04-25T01:33:33.703Z,5.40
2023-04-25T01:36:00.283Z,6.10
2023-04-25T01:38:27.006Z,5.63
2023-04-25T01:40:55.020Z,5.60
2023-04-25T01:43:21.674Z,5.65
2023-04-25T01:45:49.494Z,5.07
2023-04-25T01:48:16.330Z,5.65
2023-04-25T01:50:44.026Z,5.75
2023-04-25T01:53:12.156Z,5.80
2023-04-25T01:55:38.789Z,5.15
2023-04-25T01:58:10.340Z,5.95
2023-04-25T02:00:39.863Z,5.85
2023-04-25T02:03:07.464Z,5.25
2023-04-25T02:05:39.151Z,5.72
2023-04-25T02:08:10.366Z,5.35
2023-04-25T02:10:37.459Z,5.43
2023-04-25T02:13:05.418Z,5.60
2023-04-25T02:15:32.234Z,6.03
2023-04-25T02:17:59.046Z,6.00
2023-04-25T02:20:26.090Z,6.65
2023-04-25T02:22:53.038Z,6.25
2023-04-25T02:25:21.072Z,6.78
2023-04-25T02:27:48.856Z,6.65
2023-04-25T02:30:16.271Z,7.63
2023-04-25T02:32:42.823Z,7.22
2023-04-25T02:35:09.811Z,7.15
2023-04-25T02:37:38.238Z,7.18
2023-04-25T02:40:05.485Z,7.68
2023-04-25T02:42:32.213Z,7.53
2023-04-25T02:44:58.955Z,7.18
2023-04-25T02:47:25.592Z,6.68
2023-04-25T02:49:52.234Z,6.63
2023-04-25T02:52:18.788Z,6.80
2023-04-25T02:54:45.325Z,6.80
2023-04-25T02:57:11.926Z,7.20
2023-04-25T02:59:38.456Z,6.55
2023-04-25T03:02:05.015Z,7.03
2023-04-25T03:04:31.760Z,6.68
2023-04-25T03:06:58.339Z,6.57
2023-04-25T03:09:24.912Z,6.65
2023-04-25T03:11:51.499Z,6.82
2023-04-25T03:14:18.044Z,6.40
2023-04-25T03:16:44.613Z,6.80
2023-04-25T03:19:11.237Z,6.75
2023-04-25T03:21:37.902Z,6.38
2023-04-25T03:24:06.878Z,6.82
2023-04-25T03:26:33.473Z,6.68
2023-04-25T03:29:00.004Z,6.93
2023-04-25T03:31:26.929Z,7.35
2023-04-25T03:33:53.680Z,7.00
2023-04-25T03:36:20.436Z,8.07
2023-04-25T03:38:47.519Z,7.53
2023-04-25T03:41:14.034Z,7.57
2023-04-25T03:43:40.648Z,7.55
2023-04-25T03:46:07.233Z,7.07
2023-04-25T03:48:33.814Z,7.53
2023-04-25T03:51:00.387Z,7.53
2023-04-25T03:53:27.054Z,7.43
2023-04-25T03:55:53.620Z,7.43
2023-04-25T03:58:20.264Z,8.07
2023-04-25T04:00:46.949Z,7.47
2023-04-25T04:03:13.737Z,7.32
2023-04-25T04:05:41.677Z,6.72
2023-04-25T04:08:08.386Z,6.55
2023-04-25T04:10:34.974Z,6.57
2023-04-25T04:13:01.492Z,6.55
2023-04-25T04:15:28.304Z,7.32
2023-04-25T04:17:55.860Z,7.07
2023-04-25T04:20:22.609Z,6.63
2023-04-25T04:22:49.208Z,6.88
2023-04-25T04:25:15.896Z,6.20
2023-04-25T04:27:42.539Z,6.72
2023-04-25T04:30:09.522Z,6.72
2023-04-25T04:32:38.685Z,6.55
2023-04-25T04:35:07.574Z,6.90
2023-04-25T04:37:34.578Z,6.45
2023-04-25T04:40:06.811Z,5.88
2023-04-25T04:42:33.627Z,6.43
2023-04-25T04:45:02.632Z,6.93
2023-04-25T04:47:32.191Z,7.13
2023-04-25T04:49:58.987Z,6.75
2023-04-25T04:52:25.659Z,7.22
2023-04-25T04:54:52.190Z,6.82
2023-04-25T04:57:18.786Z,6.90
2023-04-25T04:59:45.513Z,6.22
2023-04-25T05:02:12.086Z,5.95
2023-04-25T05:04:38.848Z,5.18
2023-04-25T05:07:05.491Z,5.72
2023-04-25T05:09:32.059Z,5.20
2023-04-25T05:11:58.624Z,4.53
2023-04-25T05:14:25.227Z,4.75
2023-04-25T05:16:51.841Z,5.13
2023-04-25T05:19:18.572Z,4.93
2023-04-25T05:21:45.100Z,3.80
2023-04-25T05:24:11.768Z,4.20
2023-04-25T05:26:38.769Z,4.05
2023-04-25T05:29:06.537Z,3.80
2023-04-25T05:31:33.569Z,3.85
2023-04-25T05:34:00.343Z,4.22
2023-04-25T05:39:11.635Z,4.35
2023-04-25T05:41:38.187Z,3.80
2023-04-25T05:44:04.727Z,4.45
2023-04-25T05:46:31.332Z,4.20
2023-04-25T05:48:57.969Z,4.85
2023-04-25T05:51:24.621Z,4.47
2023-04-25T05:53:51.583Z,4.75
2023-04-25T05:56:18.477Z,4.68
2023-04-25T05:58:45.297Z,4.47
2023-04-25T06:01:11.918Z,5.15
2023-04-25T06:03:39.516Z,5.65
2023-04-25T06:06:06.709Z,4.90
2023-04-25T06:08:33.402Z,5.10
2023-04-25T06:10:59.942Z,5.25
2023-04-25T06:13:26.573Z,5.22
2023-04-25T06:15:53.157Z,5.40
2023-04-25T06:18:20.345Z,5.47
2023-04-25T06:20:46.937Z,5.38
2023-04-25T06:23:13.816Z,5.50
2023-04-25T06:25:40.482Z,5.30
2023-04-25T06:28:07.014Z,5.15
2023-04-25T06:30:33.572Z,4.88
2023-04-25T06:33:00.212Z,5.60
2023-04-25T06:35:26.788Z,4.93
2023-04-25T06:37:53.628Z,5.45
2023-04-25T06:40:20.339Z,5.47
2023-04-25T06:42:46.869Z,5.18
2023-04-25T06:45:13.448Z,4.70
2023-04-25T06:47:40.022Z,5.05
2023-04-25T06:50:07.161Z,5.35
2023-04-25T06:52:34.079Z,4.68
2023-04-25T06:55:00.681Z,4.38
2023-04-25T06:57:27.341Z,4.57
2023-04-25T06:59:53.852Z,4.38
2023-04-25T07:02:22.197Z,4.18
2023-04-25T07:04:49.414Z,4.25
2023-04-25T07:07:18.193Z,4.20
2023-04-25T07:09:44.807Z,4.22
2023-04-25T07:12:11.347Z,3.70
2023-04-25T07:14:37.948Z,3.60
2023-04-25T07:17:04.703Z,3.75
2023-04-25T07:19:31.301Z,3.63
2023-04-25T07:21:57.834Z,4.05
2023-04-25T07:24:24.461Z,3.60
2023-04-25T07:26:51.190Z,3.40
2023-04-25T07:29:18.097Z,3.72
2023-04-25T07:31:44.777Z,3.95
2023-04-25T07:34:11.367Z,4.28
2023-04-25T07:36:37.915Z,3.55
2023-04-25T07:39:04.592Z,4.00
2023-04-25T07:41:31.323Z,3.63
2023-04-25T07:43:57.869Z,3.88
2023-04-25T07:46:24.625Z,4.00
2023-04-25T07:48:51.476Z,3.63
2023-04-25T07:51:20.843Z,3.67
2023-04-25T07:53:49.537Z,3.58
2023-04-25T07:56:17.138Z,3.55
2023-04-25T07:58:43.835Z,3.35
2023-04-25T08:01:10.405Z,3.80
2023-04-25T08:03:37.238Z,3.65
2023-04-25T08:06:07.664Z,3.47
2023-04-25T08:08:34.866Z,3.97
2023-04-25T08:11:01.409Z,3.20
2023-04-25T08:13:27.927Z,3.58
2023-04-25T08:15:54.632Z,3.65
2023-04-25T08:18:21.595Z,3.80
2023-04-25T08:20:48.190Z,3.45
2023-04-25T08:23:15.354Z,3.30
2023-04-25T08:25:42.007Z,3.30
2023-04-25T08:28:08.514Z,3.20
2023-04-25T08:30:35.085Z,3.35
2023-04-25T08:33:01.675Z,3.10
2023-04-25T08:35:28.314Z,3.55
2023-04-25T08:37:54.929Z,3.00
2023-04-25T08:40:27.208Z,2.88
2023-04-25T08:42:55.407Z,2.70
2023-04-25T08:45:22.258Z,2.58
2023-04-25T08:47:49.831Z,2.13
2023-04-25T08:50:17.823Z,1.90
2023-04-25T08:52:47.134Z,1.40
2023-04-25T08:55:15.108Z,1.20
2023-04-25T08:57:45.760Z,1.30
2023-04-25T09:00:13.810Z,0.90
2023-04-25T09:02:41.160Z,1.02
2023-04-25T09:05:10.790Z,1.10
2023-04-25T09:07:37.453Z,1.08
2023-04-25T09:10:04.524Z,1.20
2023-04-25T09:12:31.784Z,6.25
2023-04-25T09:15:12.333Z,6.25
2023-04-25T09:17:42.508Z,6.40
2023-04-25T09:20:11.614Z,7.10
2023-04-25T09:22:38.773Z,6.60
2023-04-25T09:25:10.878Z,7.63
2023-04-25T09:30:04.351Z,6.65
2023-04-25T09:32:31.007Z,7.03
2023-04-25T09:34:58.516Z,7.38
2023-04-25T09:37:27.108Z,6.47
2023-04-25T09:39:57.866Z,7.47
2023-04-25T09:42:26.344Z,7.38
2023-04-25T09:44:54.672Z,7.93
2023-04-25T09:47:24.451Z,7.28
2023-04-25T09:49:52.586Z,7.82
2023-04-25T09:52:23.254Z,7.53
2023-04-25T09:57:25.996Z,8.43
2023-04-25T09:59:54.429Z,7.82
2023-04-25T10:02:23.359Z,8.05
2023-04-25T10:04:53.821Z,7.60
2023-04-25T10:07:22.371Z,7.85
2023-04-25T10:09:52.863Z,6.88
2023-04-25T10:12:19.462Z,7.43
2023-04-25T10:14:47.524Z,7.32
2023-04-25T10:17:15.125Z,7.25
2023-04-25T10:19:41.991Z,6.38
2023-04-25T10:22:15.749Z,7.10
2023-04-25T10:24:42.937Z,6.78
2023-04-25T10:27:09.895Z,6.63
2023-04-25T10:29:36.880Z,6.75
2023-04-25T10:32:03.706Z,6.70
2023-04-25T10:34:44.678Z,6.90
2023-04-25T10:37:12.312Z,7.28
2023-04-25T10:39:43.014Z,7.05
2023-04-25T10:42:09.680Z,6.97
2023-04-25T10:44:38.568Z,6.90
2023-04-25T10:47:09.158Z,8.20
2023-04-25T10:49:38.587Z,7.78
2023-04-25T10:52:21.359Z,6.72
2023-04-25T10:54:58.730Z,6.60
2023-04-25T10:57:42.502Z,7.82
2023-04-25T11:00:12.793Z,8.25
2023-04-25T11:02:44.242Z,7.95
2023-04-25T11:05:11.413Z,7.57
2023-04-25T11:08:07.550Z,8.05
2023-04-25T11:10:36.657Z,7.93
2023-04-25T11:13:03.493Z,7.20
2023-04-25T11:15:30.139Z,7.57
2023-04-25T11:17:56.882Z,7.25
2023-04-25T11:20:27.146Z,7.35
2023-04-25T11:22:54.173Z,6.88
2023-04-25T11:25:21.199Z,7.32
2023-04-25T11:27:52.321Z,6.85
2023-04-25T11:30:20.157Z,6.70
2023-04-25T11:32:46.999Z,7.00
2023-04-25T11:35:14.452Z,6.90
2023-04-25T11:37:42.041Z,7.43
2023-04-25T11:40:10.677Z,8.07
2023-04-25T11:42:45.368Z,8.05
2023-04-25T11:45:12.961Z,7.40
2023-04-25T11:47:39.563Z,7.30
2023-04-25T11:50:08.844Z,6.55
2023-04-25T11:52:42.643Z,5.93
2023-04-25T11:55:11.608Z,6.80
2023-04-25T11:57:42.664Z,6.53
2023-04-25T12:00:22.784Z,5.50
2023-04-25T12:02:54.249Z,5.93
2023-04-25T12:07:54.335Z,5.32
2023-04-25T12:10:21.451Z,4.72
2023-04-25T12:12:49.219Z,4.50
2023-04-25T12:15:20.455Z,3.60
2023-04-25T12:17:48.691Z,3.63
2023-04-25T12:20:18.287Z,3.42
2023-04-25T12:22:47.770Z,2.88
2023-04-25T12:25:43.177Z,3.35
2023-04-25T12:28:13.153Z,3.17
2023-04-25T12:30:53.366Z,3.28
2023-04-25T12:33:19.921Z,3.50
2023-04-25T12:35:46.687Z,2.92
2023-04-25T12:38:31.451Z,3.03
2023-04-25T12:40:59.258Z,2.70
2023-04-25T12:43:26.024Z,2.97
2023-04-25T12:45:54.281Z,2.70
2023-04-25T12:48:21.466Z,2.95
2023-04-25T12:50:50.205Z,2.88
2023-04-25T12:53:17.924Z,3.13
2023-04-25T12:55:47.002Z,2.95
2023-04-25T12:58:14.780Z,2.65
2023-04-25T13:00:41.357Z,2.78
2023-04-25T13:03:08.293Z,2.72
2023-04-25T13:05:35.054Z,2.85
2023-04-25T13:08:01.597Z,2.70
2023-04-25T13:10:28.124Z,2.47
2023-04-25T13:12:54.646Z,3.17
2023-04-25T13:15:21.494Z,2.70
2023-04-25T13:17:48.101Z,2.85
2023-04-25T13:20:15.975Z,3.30
2023-04-25T13:22:43.346Z,3.45
2023-04-25T13:25:10.047Z,3.45
2023-04-25T13:27:40.188Z,2.97
2023-04-25T13:30:10.534Z,2.85
2023-04-25T13:32:38.538Z,2.55
2023-04-25T13:35:09.155Z,2.60
2023-04-25T13:37:37.487Z,2.70
2023-04-25T13:40:07.385Z,2.60
2023-04-25T13:42:33.902Z,2.95
2023-04-25T13:45:00.460Z,3.00
2023-04-25T13:47:28.030Z,2.75
2023-04-25T13:49:55.458Z,2.78
2023-04-25T13:52:22.127Z,2.42
2023-04-25T13:54:48.646Z,3.30
2023-04-25T13:57:15.238Z,2.85
2023-04-25T13:59:41.925Z,2.78
2023-04-25T14:02:08.611Z,2.88
2023-04-25T14:04:35.223Z,2.70
2023-04-25T14:07:03.239Z,3.03
2023-04-25T14:09:30.528Z,2.88
2023-04-25T14:11:57.557Z,2.75
2023-04-25T14:14:24.903Z,2.67
2023-04-25T14:16:54.712Z,3.03
2023-04-25T14:19:22.400Z,2.60
2023-04-25T14:21:49.151Z,2.70
2023-04-25T14:24:15.867Z,2.40
2023-04-25T14:26:43.458Z,3.00
2023-04-25T14:29:12.655Z,2.83
2023-04-25T14:31:41.410Z,2.67
2023-04-25T14:34:08.305Z,2.83
2023-04-25T14:36:35.394Z,2.58
2023-04-25T14:39:02.110Z,3.15
2023-04-25T14:41:28.863Z,2.88
2023-04-25T14:43:56.672Z,2.70
2023-04-25T14:49:08.368Z,3.05
2023-04-25T14:51:34.939Z,2.25
2023-04-25T14:54:01.501Z,2.80
2023-04-25T14:56:28.076Z,2.50
2023-04-25T14:58:54.659Z,2.45
2023-04-25T15:01:21.916Z,2.70
2023-04-25T15:03:49.516Z,2.35
2023-04-25T15:06:16.239Z,2.63
2023-04-25T15:08:42.861Z,2.05
2023-04-25T15:11:09.536Z,3.10
2023-04-25T15:13:36.039Z,2.75
2023-04-25T15:16:02.647Z,2.13
2023-04-25T15:18:29.240Z,2.60
2023-04-25T15:20:56.069Z,2.20
2023-04-25T15:23:22.908Z,2.45
2023-04-25T15:25:51.699Z,2.85
2023-04-25T15:28:18.326Z,3.50
2023-04-25T15:30:45.038Z,2.60
2023-04-25T15:33:11.874Z,2.80
2023-04-25T15:35:38.517Z,2.30
2023-04-25T15:38:05.347Z,2.75
2023-04-25T15:40:32.135Z,2.25
2023-04-25T15:42:59.734Z,2.33
2023-04-25T15:45:26.981Z,2.22
2023-04-25T15:47:55.826Z,2.70
2023-04-25T15:50:23.361Z,2.72
2023-04-25T15:52:51.246Z,2.15
2023-04-25T15:55:19.629Z,2.25
2023-04-25T15:57:46.416Z,2.42
2023-04-25T16:00:15.171Z,2.50
2023-04-25T16:02:43.203Z,2.50
2023-04-25T16:05:11.491Z,2.50
2023-04-25T16:07:39.696Z,2.53
2023-04-25T16:10:06.679Z,2.22
2023-04-25T16:12:33.297Z,2.33
2023-04-25T16:14:59.869Z,2.47
2023-04-25T16:17:29.625Z,2.70
2023-04-25T16:19:56.973Z,2.80
2023-04-25T16:22:23.633Z,2.60
2023-04-25T16:24:50.826Z,2.20
2023-04-25T16:27:17.445Z,2.28
2023-04-25T16:29:44.078Z,2.40
2023-04-25T16:32:11.202Z,2.35
2023-04-25T16:34:37.771Z,2.20
2023-04-25T16:37:04.565Z,2.20
2023-04-25T16:39:31.101Z,1.88
2023-04-25T16:41:57.674Z,1.92
2023-04-25T16:44:24.211Z,2.20
2023-04-25T16:46:50.806Z,2.40
2023-04-25T16:49:17.437Z,1.77
2023-04-25T16:51:44.012Z,2.13
2023-04-25T16:54:10.601Z,2.08
2023-04-25T16:56:37.353Z,2.55
2023-04-25T16:59:03.895Z,2.65
2023-04-25T17:01:31.315Z,2.20
2023-04-25T17:03:58.183Z,2.30
2023-04-25T17:06:25.010Z,2.65
2023-04-25T17:08:51.973Z,2.60
2023-04-25T17:11:20.167Z,2.53
2023-04-25T17:13:46.820Z,2.90
2023-04-25T17:16:16.621Z,2.40
2023-04-25T17:18:44.146Z,2.60
2023-04-25T17:21:10.899Z,2.65
2023-04-25T17:23:37.669Z,2.50
2023-04-25T17:26:04.310Z,2.70
2023-04-25T17:28:31.102Z,2.80
2023-04-25T17:30:57.779Z,2.60
2023-04-25T17:33:27.115Z,2.70
2023-04-25T17:35:54.384Z,2.88
2023-04-25T17:38:21.656Z,2.28
2023-04-25T17:40:48.269Z,3.03
2023-04-25T17:43:14.801Z,2.70
2023-04-25T17:45:41.544Z,2.30
2023-04-25T17:48:08.522Z,2.42
2023-04-25T17:50:35.207Z,2.80
2023-04-25T17:53:05.580Z,2.25
2023-04-25T17:55:32.112Z,3.25
2023-04-25T17:57:58.650Z,2.60
2023-04-25T18:00:25.684Z,2.47
2023-04-25T18:02:52.732Z,2.70
2023-04-25T18:05:19.620Z,2.58
2023-04-25T18:07:46.301Z,2.83
2023-04-25T18:10:14.904Z,3.03
2023-04-25T18:12:41.590Z,3.00
2023-04-25T18:15:09.278Z,2.50
2023-04-25T18:17:45.790Z,2.13
2023-04-25T18:20:17.469Z,2.75
2023-04-25T18:22:45.350Z,2.88
2023-04-25T18:25:13.790Z,3.08
2023-04-25T18:27:41.729Z,2.90
2023-04-25T18:30:10.871Z,2.92
2023-04-25T18:32:38.171Z,3.17
2023-04-25T18:35:05.533Z,3.22
2023-04-25T18:37:32.115Z,2.90
2023-04-25T18:39:58.737Z,2.70
2023-04-25T18:42:25.350Z,3.17
2023-04-25T18:44:52.478Z,3.00
2023-04-25T18:47:19.008Z,3.40
2023-04-25T18:49:45.680Z,2.67
2023-04-25T18:52:15.069Z,3.00
2023-04-25T18:54:42.590Z,2.92
2023-04-25T18:57:09.538Z,2.95
2023-04-25T18:59:36.221Z,2.78
2023-04-25T19:02:04.448Z,2.72
2023-04-25T19:04:31.736Z,3.10
2023-04-25T19:06:58.360Z,2.90
2023-04-25T19:09:25.251Z,2.92
2023-04-25T19:11:52.006Z,2.90
2023-04-25T19:14:18.682Z,2.45
2023-04-25T19:16:45.561Z,2.88
2023-04-25T19:19:12.557Z,2.80
2023-04-25T19:21:39.178Z,3.33
2023-04-25T19:24:07.006Z,3.13
2023-04-25T19:26:33.916Z,3.10
2023-04-25T19:29:09.464Z,3.15
2023-04-25T19:31:37.703Z,2.67
2023-04-25T19:34:05.621Z,2.83
2023-04-25T19:36:32.446Z,3.13
2023-04-25T19:39:03.856Z,3.15
2023-04-25T19:41:31.897Z,3.50
2023-04-25T19:44:00.951Z,3.70
2023-04-25T19:46:27.591Z,3.10
2023-04-25T19:48:54.209Z,3.13
2023-04-25T19:51:21.070Z,3.17
2023-04-25T19:53:47.615Z,3.20
2023-04-25T19:56:14.231Z,3.17
2023-04-25T19:58:40.819Z,3.10
2023-04-25T20:01:07.651Z,3.20
2023-04-25T20:03:34.454Z,3.40
2023-04-25T20:06:01.109Z,3.08
2023-04-25T20:08:27.645Z,3.50
2023-04-25T20:10:54.181Z,3.50
2023-04-25T20:13:20.736Z,3.70
2023-04-25T20:15:47.331Z,3.38
2023-04-25T20:18:14.029Z,3.53
2023-04-25T20:20:40.595Z,3.40
2023-04-25T20:23:07.225Z,3.00
2023-04-25T20:25:33.760Z,3.80
2023-04-25T20:28:00.307Z,3.33
2023-04-25T20:30:26.925Z,3.30
2023-04-25T20:32:53.542Z,3.83
2023-04-25T20:35:22.685Z,3.35
2023-04-25T20:37:50.602Z,4.25
2023-04-25T20:40:17.197Z,3.85
2023-04-25T20:42:43.764Z,6.15
2023-04-25T20:45:13.500Z,6.30
2023-04-25T20:47:41.054Z,6.53
2023-04-25T20:50:08.295Z,9.60
2023-04-25T20:52:35.407Z,7.80
2023-04-25T20:55:02.046Z,8.93
2023-04-25T20:57:29.314Z,5.05
2023-04-25T20:59:57.352Z,4.13
2023-04-25T21:02:24.435Z,3.67
2023-04-25T21:04:51.852Z,4.47
2023-04-25T21:07:18.432Z,4.55
2023-04-25T21:09:45.696Z,3.97
2023-04-25T21:12:12.378Z,4.78
2023-04-25T21:14:38.983Z,3.88
2023-04-25T21:17:05.974Z,3.70
2023-04-25T21:19:33.111Z,5.45
2023-04-25T21:22:00.176Z,4.90
2023-04-25T21:24:27.381Z,4.00
2023-04-25T21:26:53.968Z,3.53
2023-04-25T21:29:20.545Z,4.75
2023-04-25T21:31:47.323Z,4.88
2023-04-25T21:34:13.850Z,3.95
2023-04-25T21:36:41.359Z,4.70
2023-04-25T21:39:08.074Z,4.05
2023-04-25T21:41:34.791Z,4.53
2023-04-25T21:44:01.326Z,4.50
2023-04-25T21:46:27.957Z,4.50
2023-04-25T21:48:54.920Z,6.10
2023-04-25T21:51:22.814Z,8.27
2023-04-25T21:53:49.388Z,7.97
2023-04-25T21:56:16.036Z,8.18
2023-04-25T21:58:42.642Z,7.22
2023-04-25T22:01:10.017Z,7.18
2023-04-25T22:03:36.741Z,7.07
2023-04-25T22:06:04.002Z,7.35
2023-04-25T22:08:30.633Z,11.40
2023-04-25T22:10:57.177Z,12.02
2023-04-25T22:13:23.886Z,12.63
2023-04-25T22:15:50.933Z,14.23
2023-04-25T22:18:18.201Z,11.68
2023-04-25T22:20:44.963Z,13.57
2023-04-25T22:23:12.164Z,15.45
2023-04-25T22:25:38.922Z,6.63
2023-04-25T22:28:05.647Z,5.82
2023-04-25T22:30:32.694Z,8.30
2023-04-25T22:32:59.443Z,7.43
2023-04-25T22:35:26.256Z,6.00
2023-04-25T22:37:53.107Z,5.30
2023-04-25T22:40:19.736Z,5.40
2023-04-25T22:42:46.722Z,5.63
2023-04-25T22:45:13.668Z,6.10
2023-04-25T22:47:40.677Z,5.85
2023-04-25T22:50:13.087Z,5.72
2023-04-25T22:52:40.578Z,5.25
2023-04-25T22:55:07.459Z,4.97
2023-04-25T22:57:38.329Z,5.47
2023-04-25T23:00:15.291Z,5.38
2023-04-25T23:02:46.176Z,5.25
2023-04-25T23:05:13.509Z,5.15
2023-04-25T23:07:44.711Z,4.82
2023-04-25T23:10:12.162Z,5.13
2023-04-25T23:12:40.122Z,5.50
2023-04-25T23:15:07.866Z,5.38
2023-04-25T23:17:35.206Z,5.63
2023-04-25T23:20:01.883Z,5.63
2023-04-25T23:22:28.425Z,4.55
2023-04-25T23:24:55.081Z,5.13
2023-04-25T23:27:21.653Z,4.38
2023-04-25T23:29:54.836Z,3.92
2023-04-25T23:32:22.386Z,4.28
2023-04-25T23:34:49.422Z,4.15
2023-04-25T23:37:16.126Z,4.10
2023-04-25T23:39:49.314Z,3.88
2023-04-25T23:42:16.246Z,3.45
2023-04-25T23:44:42.938Z,4.45
2023-04-25T23:47:09.895Z,4.57
2023-04-25T23:49:36.510Z,4.03
2023-04-25T23:52:05.058Z,3.35
2023-04-25T23:54:31.766Z,4.30
2023-04-25T23:56:58.308Z,3.75
2023-04-25T23:59:24.885Z,3.85
